Time;durP1;ratioP1;P1;durP2;ratioP2;P2;SDS_P1;SDS_P2;PMS_P1;PMS_P2;Temp;Humidity;BMP_temperature;BMP_pressure;BME280_temperature;BME280_humidity;BME280_pressure;Samples;Min_cycle;Max_cycle;Signal;HPM_P1;HPM_P2
2021/07/05 00:01:03;;;;;;;8.32;1.77;;;14.70;99.90;;;;;;6279067;22;20050;-93
2021/07/05 00:03:53;;;;;;;2.22;1.52;;;14.70;99.90;;;;;;6278537;22;20043;-92
2021/07/05 00:06:44;;;;;;;8.70;1.30;;;14.80;99.90;;;;;;6277188;22;20073;-93
2021/07/05 00:09:50;;;;;;;3.03;1.05;;;14.80;99.90;;;;;;6275466;22;20118;-93
2021/07/05 00:12:48;;;;;;;2.58;1.30;;;14.80;99.90;;;;;;6276392;22;20101;-93
2021/07/05 00:15:42;;;;;;;6.78;1.70;;;14.80;99.90;;;;;;6280859;22;20020;-92
2021/07/05 00:19:00;;;;;;;3.63;1.42;;;14.80;99.90;;;;;;6281612;22;20047;-93
2021/07/05 00:21:48;;;;;;;2.15;1.10;;;14.80;99.90;;;;;;6277774;22;20042;-94
2021/07/05 00:24:46;;;;;;;2.42;1.20;;;14.80;99.90;;;;;;6275397;22;20028;-93
2021/07/05 00:27:39;;;;;;;3.25;1.40;;;14.80;99.90;;;;;;6282166;22;20035;-91
2021/07/05 00:30:28;;;;;;;1.73;1.30;;;14.80;99.90;;;;;;6276573;22;20094;-93
2021/07/05 00:33:35;;;;;;;;;;;;;;;;;;;;;
2021/07/05 00:36:38;;;;;;;2.13;1.38;;;14.80;99.90;;;;;;6272390;22;20019;-93
2021/07/05 00:39:26;;;;;;;5.55;1.40;;;14.70;99.90;;;;;;6253728;22;20028;-92
2021/07/05 00:46:19;;;;;;;3.85;1.52;;;14.70;99.90;;;;;;6178903;23;20100;-93
2021/07/05 00:49:11;;;;;;;2.65;1.20;;;14.70;99.90;;;;;;6159383;23;20417;-92
2021/07/05 00:52:03;;;;;;;2.20;1.20;;;14.70;99.90;;;;;;6139088;23;20484;-93
2021/07/05 00:55:32;;;;;;;2.97;1.30;;;14.70;99.90;;;;;;6273385;22;20020;-91
2021/07/05 00:58:31;;;;;;;;;;;14.70;99.90;;;;;;6273625;22;20020;-92
2021/07/05 01:01:56;;;;;;;3.80;1.65;;;14.70;99.90;;;;;;6274015;22;20447;-90
2021/07/05 01:04:44;;;;;;;4.07;1.80;;;14.60;99.90;;;;;;6232840;22;20035;-93
2021/07/05 01:07:39;;;;;;;4.75;1.80;;;14.70;99.90;;;;;;6270603;22;20039;-92
2021/07/05 01:10:32;;;;;;;1.65;1.45;;;14.60;99.90;;;;;;6272547;22;20096;-93
2021/07/05 01:13:42;;;;;;;5.45;1.38;;;14.60;99.90;;;;;;6271513;22;20031;-93
2021/07/05 01:16:33;;;;;;;1.52;1.42;;;14.60;99.90;;;;;;6271151;22;20055;-91
2021/07/05 01:19:30;;;;;;;5.20;1.50;;;14.60;99.90;;;;;;6272938;22;20411;-94
2021/07/05 01:22:45;;;;;;;4.95;1.55;;;14.50;99.90;;;;;;6274116;22;20034;-90
2021/07/05 01:25:46;;;;;;;2.20;1.48;;;14.50;99.90;;;;;;6257943;22;20019;-93
2021/07/05 01:28:36;;;;;;;3.03;1.65;;;14.40;99.90;;;;;;6256642;22;20031;-94
2021/07/05 01:32:02;;;;;;;7.43;2.20;;;14.40;99.90;;;;;;6275344;22;20540;-91
2021/07/05 01:35:20;;;;;;;2.67;1.48;;;14.30;99.90;;;;;;6261964;22;20425;-92
2021/07/05 01:38:19;;;;;;;3.58;1.55;;;14.30;99.90;;;;;;6256936;22;20063;-92
2021/07/05 01:41:28;;;;;;;;;;;14.30;99.90;;;;;;6275430;22;20023;-94
2021/07/05 01:48:17;;;;;;;4.25;1.60;;;14.30;99.90;;;;;;6277511;22;20030;-94
2021/07/05 01:51:38;;;;;;;4.30;1.60;;;14.30;99.90;;;;;;6262257;22;20019;-93
2021/07/05 01:54:51;;;;;;;5.18;1.50;;;14.30;99.90;;;;;;6291578;22;20019;-93
2021/07/05 01:57:55;;;;;;;2.55;1.77;;;14.30;99.90;;;;;;6272159;22;20111;-93
2021/07/05 02:05:23;;;;;;;2.42;1.85;;;14.20;99.90;;;;;;6192171;23;20095;-93
2021/07/05 02:08:52;;;;;;;3.03;1.73;;;14.20;99.90;;;;;;6188400;23;20029;-95
2021/07/05 02:11:40;;;;;;;2.63;1.70;;;14.20;99.90;;;;;;6155057;23;20080;-94
2021/07/05 02:14:40;;;;;;;6.55;1.73;;;14.20;99.90;;;;;;6178132;23;20020;-91
2021/07/05 02:17:29;;;;;;;4.57;1.67;;;14.30;99.90;;;;;;6243092;23;20123;-95
2021/07/05 02:20:32;;;;;;;2.60;1.83;;;14.40;99.90;;;;;;6222828;23;20028;-91
2021/07/05 02:26:49;;;;;;;5.13;1.67;;;14.40;99.90;;;;;;6244145;23;20028;-92
2021/07/05 02:29:37;;;;;;;3.72;1.80;;;14.40;99.90;;;;;;6244955;23;20054;-92
2021/07/05 02:32:28;;;;;;;4.40;1.83;;;14.40;99.90;;;;;;6243093;23;20146;-94
2021/07/05 02:35:36;;;;;;;3.38;1.52;;;14.50;99.90;;;;;;6197461;23;20024;-93
2021/07/05 02:38:31;;;;;;;5.05;2.45;;;14.40;99.90;;;;;;6228821;23;20048;-93
2021/07/05 02:41:26;;;;;;;3.47;1.83;;;14.50;99.90;;;;;;6228643;23;20056;-94
2021/07/05 02:44:17;;;;;;;2.22;1.60;;;14.50;99.90;;;;;;6248555;23;20058;-93
2021/07/05 02:47:31;;;;;;;2.42;1.73;;;14.50;99.90;;;;;;6225162;23;20051;-94
2021/07/05 02:50:24;;;;;;;6.70;1.70;;;14.50;99.90;;;;;;6246209;23;20153;-92
2021/07/05 02:53:37;;;;;;;5.00;2.70;;;14.50;99.90;;;;;;6223267;23;20090;-94
2021/07/05 02:56:40;;;;;;;5.65;1.90;;;14.60;99.90;;;;;;6241565;23;20033;-91
2021/07/05 02:59:33;;;;;;;6.68;2.00;;;14.60;99.90;;;;;;6222187;23;20024;-93
2021/07/05 03:02:37;;;;;;;;;;;;;;;;;;;;;
2021/07/05 03:05:31;;;;;;;4.13;1.88;;;14.70;99.90;;;;;;6263677;22;20427;-94
2021/07/05 03:08:19;;;;;;;4.90;1.80;;;14.80;99.90;;;;;;6273534;22;20091;-92
2021/07/05 03:11:12;;;;;;;5.13;1.73;;;14.80;99.90;;;;;;6273507;22;20030;-92
2021/07/05 03:14:02;;;;;;;3.88;1.60;;;14.80;99.90;;;;;;6276047;22;20048;-92
2021/07/05 03:16:50;;;;;;;3.90;1.58;;;14.80;99.90;;;;;;6273054;22;20019;-94
2021/07/05 03:20:12;;;;;;;7.47;2.08;;;14.80;99.90;;;;;;6274454;22;20035;-93
2021/07/05 03:23:42;;;;;;;;;;;;;;;;;;;;;
2021/07/05 03:27:02;;;;;;;2.05;1.65;;;14.70;99.90;;;;;;6273312;22;20337;-91
2021/07/05 03:30:32;;;;;;;2.97;2.15;;;14.70;99.90;;;;;;6253103;22;20023;-93
2021/07/05 03:34:14;;;;;;;3.63;2.38;;;14.60;99.90;;;;;;6189044;22;20024;-94
2021/07/05 03:37:29;;;;;;;7.78;2.40;;;14.60;99.90;;;;;;6268669;22;20019;-93
2021/07/05 03:44:57;;;;;;;3.22;2.28;;;14.40;99.90;;;;;;6182460;23;20444;-90
2021/07/05 03:48:11;;;;;;;3.53;2.30;;;14.30;99.90;;;;;;6152743;23;20021;-93
2021/07/05 03:51:21;;;;;;;5.55;2.40;;;14.30;99.90;;;;;;6122647;23;20028;-94
2021/07/05 03:54:35;;;;;;;5.53;2.65;;;14.30;99.90;;;;;;6141614;23;20025;-94
2021/07/05 03:58:17;;;;;;;4.53;2.28;;;14.30;99.90;;;;;;6067991;23;20403;-94
2021/07/05 04:02:08;;;;;;;4.20;1.80;;;14.30;99.90;;;;;;6144465;23;20411;-91
2021/07/05 04:05:26;;;;;;;7.22;3.30;;;14.20;99.90;;;;;;6183897;22;20179;-92
2021/07/05 04:08:35;;;;;;;3.80;3.08;;;14.30;99.90;;;;;;6281662;22;20121;-93
2021/07/05 04:15:57;;;;;;;7.13;2.20;;;14.40;99.90;;;;;;6272657;22;20091;-92
2021/07/05 04:19:03;;;;;;;4.88;2.50;;;14.40;99.90;;;;;;6180107;23;20282;-91
2021/07/05 04:22:27;;;;;;;6.85;1.73;;;14.50;99.90;;;;;;6040920;23;20042;-90
2021/07/05 04:29:30;;;;;;;5.45;2.10;;;14.50;99.90;;;;;;6060747;23;20015;-91
2021/07/05 04:32:20;;;;;;;3.55;2.00;;;14.60;99.90;;;;;;6072756;23;20026;-90
2021/07/05 04:35:28;;;;;;;5.97;2.22;;;14.60;99.90;;;;;;6088649;23;20034;-92
2021/07/05 04:42:54;;;;;;;7.28;1.90;;;14.70;99.90;;;;;;6062090;23;20011;-91
2021/07/05 04:45:44;;;;;;;6.80;2.22;;;14.80;99.90;;;;;;6087867;23;20432;-93
2021/07/05 04:48:45;;;;;;;3.95;1.90;;;14.80;99.90;;;;;;6244328;22;20089;-93
2021/07/05 04:51:35;;;;;;;1.95;1.83;;;14.90;99.90;;;;;;6279117;22;20035;-93
2021/07/05 04:54:22;;;;;;;7.22;1.88;;;15.10;99.90;;;;;;6277957;22;20105;-93
2021/07/05 04:57:12;;;;;;;3.75;1.55;;;15.20;99.90;;;;;;6276734;22;20024;-93
2021/07/05 05:00:04;;;;;;;4.60;2.13;;;15.20;99.90;;;;;;6275664;22;20027;-95
2021/07/05 05:02:54;;;;;;;6.07;2.10;;;15.20;99.90;;;;;;6279520;22;20127;-92
2021/07/05 05:05:43;;;;;;;3.92;2.15;;;15.20;99.90;;;;;;6276129;22;20039;-91
2021/07/05 05:08:31;;;;;;;5.63;2.33;;;15.20;99.90;;;;;;6278621;22;20112;-93
2021/07/05 05:11:22;;;;;;;5.15;1.83;;;15.20;99.90;;;;;;6276284;22;20019;-93
2021/07/05 05:14:26;;;;;;;2.65;1.70;;;15.10;99.90;;;;;;6279757;22;20107;-92
2021/07/05 05:17:14;;;;;;;7.18;2.00;;;15.10;99.90;;;;;;6276820;22;20643;-93
2021/07/05 05:20:35;;;;;;;5.32;2.00;;;15.10;99.90;;;;;;6277363;22;20020;-95
2021/07/05 05:24:12;;;;;;;5.18;2.40;;;15.10;99.90;;;;;;6252461;22;20034;-94
2021/07/05 05:27:44;;;;;;;4.78;1.85;;;15.10;99.90;;;;;;6275332;22;20023;-93
2021/07/05 05:30:33;;;;;;;3.05;2.17;;;15.10;99.90;;;;;;6274103;22;20023;-92
2021/07/05 05:33:29;;;;;;;4.68;2.05;;;15.10;99.90;;;;;;6279340;22;20055;-93
2021/07/05 05:36:52;;;;;;;8.30;2.30;;;15.10;99.90;;;;;;6259275;22;20020;-92
2021/07/05 05:39:42;;;;;;;7.25;2.20;;;15.10;99.90;;;;;;6280029;22;20111;-91
2021/07/05 05:42:52;;;;;;;8.48;3.13;;;15.10;99.90;;;;;;6243927;22;20028;-92
2021/07/05 05:46:07;;;;;;;2.90;1.70;;;15.10;99.90;;;;;;6252248;22;20038;-92
2021/07/05 05:49:21;;;;;;;4.70;1.75;;;15.10;99.90;;;;;;6050706;23;20030;-91
2021/07/05 05:52:22;;;;;;;2.78;2.00;;;15.10;99.90;;;;;;6104513;23;20128;-91
2021/07/05 05:55:20;;;;;;;3.90;1.90;;;15.10;99.90;;;;;;6104115;23;20041;-93
2021/07/05 05:58:50;;;;;;;5.22;2.20;;;15.00;99.90;;;;;;6108161;23;20092;-91
2021/07/05 06:02:03;;;;;;;8.20;2.42;;;15.00;99.90;;;;;;6124761;23;20170;-92
2021/07/05 06:09:13;;;;;;;7.72;2.55;;;15.00;99.90;;;;;;6149312;23;20072;-89
2021/07/05 06:12:00;;;;;;;4.05;2.47;;;15.10;99.90;;;;;;6147302;23;20025;-90
2021/07/05 06:14:50;;;;;;;3.97;2.25;;;15.00;99.90;;;;;;6130151;23;20148;-91
2021/07/05 06:17:40;;;;;;;4.88;2.45;;;15.00;99.90;;;;;;6130462;23;20268;-90
2021/07/05 06:20:28;;;;;;;3.20;2.30;;;15.10;99.90;;;;;;6180693;23;20024;-88
2021/07/05 06:23:26;;;;;;;5.50;2.30;;;15.00;99.90;;;;;;6192181;23;20024;-90
2021/07/05 06:26:15;;;;;;;4.60;2.08;;;15.00;99.90;;;;;;6188677;23;20432;-88
2021/07/05 06:29:02;;;;;;;5.13;2.47;;;15.00;99.90;;;;;;6188804;23;20096;-89
2021/07/05 06:31:51;;;;;;;7.45;2.67;;;15.00;99.90;;;;;;6208840;23;20031;-92
2021/07/05 06:34:42;;;;;;;4.75;2.60;;;15.00;99.90;;;;;;6276002;22;20098;-90
2021/07/05 06:37:32;;;;;;;5.70;2.35;;;15.10;99.90;;;;;;6250316;22;20265;-89
2021/07/05 06:40:27;;;;;;;2.42;2.10;;;15.10;99.90;;;;;;6272894;22;20030;-89
2021/07/05 06:43:14;;;;;;;;;;;15.00;99.90;;;;;;6273755;22;20065;-90
2021/07/05 06:46:19;;;;;;;;;;;15.00;99.90;;;;;;6273535;22;20012;-90
2021/07/05 06:49:18;;;;;;;6.88;2.80;;;15.00;99.90;;;;;;6275841;22;19922;-92
2021/07/05 06:52:07;;;;;;;11.30;2.70;;;15.00;99.90;;;;;;6272360;22;20023;-90
2021/07/05 06:54:57;;;;;;;5.57;2.75;;;15.10;99.90;;;;;;6252788;22;20126;-90
2021/07/05 06:57:53;;;;;;;7.70;2.88;;;15.10;99.90;;;;;;6272462;22;20119;-89
2021/07/05 07:01:10;;;;;;;3.55;2.55;;;15.10;99.90;;;;;;6272480;22;20452;-92
2021/07/05 07:04:00;;;;;;;5.82;2.70;;;15.10;99.90;;;;;;6273575;22;20117;-92
2021/07/05 07:06:52;;;;;;;7.25;2.67;;;15.10;99.90;;;;;;6280405;22;20426;-93
2021/07/05 07:09:40;;;;;;;5.55;2.72;;;15.20;99.90;;;;;;6274515;22;20024;-91
2021/07/05 07:12:47;;;;;;;4.10;2.67;;;15.30;99.90;;;;;;6254609;22;20065;-92
2021/07/05 07:15:56;;;;;;;3.47;2.45;;;15.30;99.90;;;;;;6271501;22;20023;-90
2021/07/05 07:21:52;;;;;;;2.83;2.45;;;15.30;99.90;;;;;;6272962;22;20081;-91
2021/07/05 07:24:40;;;;;;;2.95;2.38;;;15.40;99.90;;;;;;6273928;22;20222;-88
2021/07/05 07:27:27;;;;;;;3.70;2.20;;;15.40;99.90;;;;;;6270467;22;20055;-89
2021/07/05 07:30:25;;;;;;;3.78;2.17;;;15.40;99.90;;;;;;6271808;22;20031;-91
2021/07/05 07:33:16;;;;;;;6.47;2.45;;;15.40;99.90;;;;;;6273056;22;20035;-91
2021/07/05 07:36:05;;;;;;;4.73;3.13;;;15.40;99.90;;;;;;6251626;22;20391;-89
2021/07/05 07:38:57;;;;;;;5.05;2.10;;;15.50;99.90;;;;;;6252777;22;20027;-90
2021/07/05 07:41:44;;;;;;;4.45;2.05;;;15.50;99.90;;;;;;6270287;22;20031;-91
2021/07/05 07:44:36;;;;;;;4.28;2.08;;;15.50;99.90;;;;;;6254243;22;20118;-90
2021/07/05 07:47:30;;;;;;;6.55;2.13;;;15.60;99.90;;;;;;6270764;22;20037;-89
2021/07/05 07:50:19;;;;;;;4.63;2.38;;;15.60;99.90;;;;;;6271966;22;20070;-89
2021/07/05 07:53:07;;;;;;;4.30;2.50;;;15.50;99.90;;;;;;6274894;22;20385;-88
2021/07/05 07:55:58;;;;;;;3.78;1.92;;;15.60;99.90;;;;;;6275271;22;20020;-93
2021/07/05 07:58:46;;;;;;;2.53;1.77;;;15.70;99.90;;;;;;6275175;22;20028;-90
2021/07/05 08:01:36;;;;;;;4.13;1.80;;;15.70;99.90;;;;;;6274187;22;20374;-92
2021/07/05 08:04:31;;;;;;;5.22;2.10;;;15.70;99.90;;;;;;6275697;22;20038;-90
2021/07/05 08:07:23;;;;;;;2.85;1.85;;;15.80;99.90;;;;;;6276039;22;20023;-93
2021/07/05 08:13:46;;;;;;;2.90;2.03;;;15.90;99.90;;;;;;6273219;22;20122;-90
2021/07/05 08:17:14;;;;;;;3.75;2.20;;;15.80;99.90;;;;;;6231412;23;20107;-91
2021/07/05 08:20:13;;;;;;;5.72;2.30;;;15.90;99.90;;;;;;6241012;23;20020;-92
2021/07/05 08:23:04;;;;;;;7.55;2.45;;;15.90;99.90;;;;;;6240573;23;20374;-91
2021/07/05 08:25:53;;;;;;;2.53;2.00;;;15.90;99.90;;;;;;6239073;23;20019;-88
2021/07/05 08:28:45;;;;;;;6.57;2.55;;;15.90;99.90;;;;;;6227098;23;20086;-89
2021/07/05 08:31:32;;;;;;;3.67;2.33;;;15.90;99.90;;;;;;6242392;23;20097;-90
2021/07/05 08:34:22;;;;;;;6.53;2.50;;;16.00;99.90;;;;;;6244220;23;20046;-92
2021/07/05 08:37:30;;;;;;;2.80;2.10;;;16.10;99.90;;;;;;6243293;23;20032;-93
2021/07/05 08:40:49;;;;;;;5.78;1.88;;;16.30;99.90;;;;;;6244709;23;20028;-93
2021/07/05 08:43:59;;;;;;;8.57;2.42;;;16.30;99.90;;;;;;6243378;23;20050;-91
2021/07/05 08:48:46;;;;;;;;;;;16.40;99.90;;;;;;1664556;23;176360679;-93
2021/07/05 08:51:43;;;;;;;2.40;1.90;;;16.60;99.90;;;;;;6096102;23;19932;-92
2021/07/05 08:54:32;;;;;;;2.08;1.77;;;16.70;99.90;;;;;;6094088;23;20042;-92
2021/07/05 08:57:40;;;;;;;5.35;1.90;;;16.90;99.90;;;;;;6074802;23;20454;-91
2021/07/05 09:00:29;;;;;;;3.78;2.20;;;17.10;99.90;;;;;;6092516;23;20105;-89
2021/07/05 09:03:22;;;;;;;2.80;1.77;;;16.80;99.90;;;;;;6094646;23;20045;-93
2021/07/05 09:06:13;;;;;;;;;;;16.60;99.90;;;;;;6092319;23;20422;-89
2021/07/05 09:09:01;;;;;;;1.77;1.40;;;16.40;99.90;;;;;;6095286;23;20253;-89
2021/07/05 09:11:49;;;;;;;2.70;1.27;;;16.30;99.90;;;;;;6237176;23;20094;-88
2021/07/05 09:14:45;;;;;;;2.47;0.95;;;16.20;99.90;;;;;;6244919;22;20024;-91
2021/07/05 09:17:37;;;;;;;3.75;1.00;;;16.00;99.90;;;;;;6243939;23;20031;-89
2021/07/05 09:20:25;;;;;;;2.85;1.27;;;15.90;99.90;;;;;;6248581;22;20123;-89
2021/07/05 09:23:14;;;;;;;3.42;1.40;;;15.70;99.90;;;;;;6245710;22;20103;-89
2021/07/05 09:26:03;;;;;;;1.83;1.58;;;15.60;99.90;;;;;;6246135;22;20030;-90
2021/07/05 09:28:52;;;;;;;3.83;1.80;;;15.60;99.90;;;;;;6242717;23;20122;-90
2021/07/05 09:31:46;;;;;;;2.90;1.90;;;15.60;99.90;;;;;;6245490;23;20020;-91
2021/07/05 09:34:37;;;;;;;3.47;1.90;;;15.60;99.90;;;;;;6244778;23;20024;-91
2021/07/05 09:37:31;;;;;;;1.00;1.00;;;15.70;99.90;;;;;;6247509;22;20480;-92
2021/07/05 09:40:19;;;;;;;2.35;1.48;;;15.50;99.90;;;;;;6244819;22;20095;-91
2021/07/05 09:43:23;;;;;;;1.30;1.20;;;15.40;99.90;;;;;;6245243;23;20031;-91
2021/07/05 09:46:12;;;;;;;1.88;1.30;;;15.50;99.90;;;;;;6245173;23;20088;-89
2021/07/05 09:49:12;;;;;;;3.40;1.65;;;15.50;99.90;;;;;;6247963;23;20024;-90
2021/07/05 09:52:15;;;;;;;4.35;1.80;;;15.40;99.90;;;;;;6252065;23;20028;-90
2021/07/05 09:55:11;;;;;;;1.65;1.40;;;15.30;99.90;;;;;;6248455;23;20023;-91
2021/07/05 09:58:06;;;;;;;1.85;1.30;;;15.30;99.90;;;;;;6245191;22;20024;-90
2021/07/05 10:00:55;;;;;;;2.63;1.20;;;15.40;99.90;;;;;;6243058;23;20051;-91
2021/07/05 10:03:42;;;;;;;4.53;1.05;;;15.40;99.90;;;;;;6245629;23;20399;-89
2021/07/05 10:06:40;;;;;;;1.38;1.20;;;15.50;99.90;;;;;;6245782;23;20054;-91
2021/07/05 10:09:37;;;;;;;1.13;1.02;;;15.60;99.90;;;;;;6246794;23;20024;-90
2021/07/05 10:12:32;;;;;;;2.95;1.00;;;15.70;99.90;;;;;;6247806;23;20034;-90
2021/07/05 10:15:22;;;;;;;2.88;1.10;;;15.70;99.90;;;;;;6245405;23;20392;-90
2021/07/05 10:18:11;;;;;;;2.22;1.20;;;15.80;99.90;;;;;;6244935;23;20020;-90
2021/07/05 10:21:00;;;;;;;1.05;0.88;;;15.90;99.90;;;;;;6244737;23;20257;-92
2021/07/05 10:23:49;;;;;;;3.00;0.95;;;16.10;99.90;;;;;;6223715;23;20039;-89
2021/07/05 10:26:38;;;;;;;1.23;1.08;;;16.30;99.90;;;;;;6242093;23;20442;-89
2021/07/05 10:29:26;;;;;;;2.28;1.35;;;16.30;99.90;;;;;;6242619;23;20024;-89
2021/07/05 10:32:14;;;;;;;1.00;0.93;;;16.30;99.90;;;;;;6243883;23;20076;-90
2021/07/05 10:35:06;;;;;;;2.10;1.20;;;16.40;99.90;;;;;;6243981;23;20081;-90
2021/07/05 10:38:17;;;;;;;2.25;1.15;;;16.50;99.90;;;;;;6243289;23;20020;-90
2021/07/05 10:41:12;;;;;;;1.63;1.00;;;16.60;99.90;;;;;;6249407;22;20028;-89
2021/07/05 10:44:03;;;;;;;1.45;1.05;;;16.70;99.90;;;;;;6245220;22;20032;-89
2021/07/05 10:46:53;;;;;;;1.52;1.13;;;16.80;99.90;;;;;;6225450;23;20039;-90
2021/07/05 10:49:46;;;;;;;2.63;1.65;;;17.20;99.90;;;;;;6244497;23;20024;-91
2021/07/05 10:52:50;;;;;;;1.20;1.08;;;17.70;99.90;;;;;;6243864;22;20596;-90
2021/07/05 10:55:42;;;;;;;4.10;1.30;;;18.20;99.90;;;;;;6242087;23;20036;-91
2021/07/05 10:58:32;;;;;;;0.85;0.73;;;18.20;99.90;;;;;;6244440;22;20024;-90
2021/07/05 11:01:47;;;;;;;3.40;1.00;;;18.40;99.90;;;;;;6244565;22;20023;-90
2021/07/05 11:04:47;;;;;;;3.60;0.90;;;18.60;99.90;;;;;;6243283;22;20043;-91
2021/07/05 11:07:44;;;;;;;1.95;1.05;;;18.80;99.90;;;;;;6222586;23;20028;-87
2021/07/05 11:10:32;;;;;;;3.08;1.10;;;18.80;99.90;;;;;;6240729;23;20032;-89
2021/07/05 11:13:20;;;;;;;1.80;0.85;;;18.80;99.90;;;;;;6241979;23;20024;-89
2021/07/05 11:16:09;;;;;;;4.30;1.70;;;18.70;99.90;;;;;;6243544;23;20353;-90
2021/07/05 11:18:56;;;;;;;3.45;1.30;;;18.80;99.90;;;;;;6241810;23;20078;-88
2021/07/05 11:21:43;;;;;;;4.70;1.50;;;18.80;99.90;;;;;;6242980;23;20024;-89
2021/07/05 11:24:43;;;;;;;5.22;1.10;;;18.70;99.90;;;;;;6242135;23;20031;-89
2021/07/05 11:27:37;;;;;;;4.55;1.58;;;18.60;99.90;;;;;;6239911;23;20035;-87
2021/07/05 11:30:28;;;;;;;3.22;1.65;;;18.80;99.90;;;;;;6243301;23;20027;-93
2021/07/05 11:33:29;;;;;;;;;;;18.70;99.90;;;;;;2;156904351;156904351;-88
2021/07/05 11:36:22;;;;;;;2.33;1.20;;;18.90;99.90;;;;;;6050970;23;19932;-90
2021/07/05 11:40:52;;;;;;;;;;;18.90;99.90;;;;;;3687712;23;142101875;-89
2021/07/05 11:44:12;;;;;;;3.42;1.30;;;19.20;99.90;;;;;;6111584;23;20015;-90
2021/07/05 11:46:59;;;;;;;1.30;1.20;;;19.20;99.90;;;;;;6118422;23;20406;-91
2021/07/05 11:50:06;;;;;;;3.17;1.48;;;18.90;99.90;;;;;;6119369;23;20184;-92
2021/07/05 11:52:57;;;;;;;2.88;1.50;;;18.30;99.90;;;;;;6122005;23;20033;-90
2021/07/05 11:55:45;;;;;;;6.38;1.48;;;18.40;99.90;;;;;;6122979;23;20128;-90
2021/07/05 11:58:32;;;;;;;3.88;1.00;;;18.60;99.90;;;;;;6132564;23;20030;-88
2021/07/05 12:01:20;;;;;;;1.52;1.13;;;18.70;99.90;;;;;;6174476;22;20391;-90
2021/07/05 12:04:12;;;;;;;0.93;0.90;;;18.70;99.90;;;;;;6241496;23;20082;-88
2021/07/05 12:07:00;;;;;;;2.50;1.30;;;18.70;99.90;;;;;;6245320;23;20021;-90
2021/07/05 12:09:51;;;;;;;2.17;0.90;;;18.70;99.90;;;;;;6241040;23;20024;-88
2021/07/05 12:12:39;;;;;;;2.00;1.10;;;19.00;99.90;;;;;;6246564;23;20046;-90
2021/07/05 12:15:50;;;;;;;1.90;1.40;;;19.10;99.90;;;;;;6254772;23;20008;-89
2021/07/05 12:18:45;;;;;;;3.65;1.15;;;19.10;99.90;;;;;;6236953;23;20097;-89
2021/07/05 12:21:38;;;;;;;3.00;1.20;;;19.20;99.90;;;;;;6226157;23;20028;-89
2021/07/05 12:24:28;;;;;;;1.55;1.27;;;19.80;99.90;;;;;;6243619;23;20032;-87
2021/07/05 12:27:17;;;;;;;1.95;0.80;;;20.50;99.90;;;;;;6241559;23;20036;-87
2021/07/05 12:30:05;;;;;;;2.97;0.90;;;20.70;99.90;;;;;;6241441;23;20078;-90
2021/07/05 12:32:52;;;;;;;1.35;0.75;;;20.90;99.90;;;;;;6244701;22;20405;-90
2021/07/05 12:35:42;;;;;;;2.25;0.80;;;21.50;99.90;;;;;;6246046;22;20036;-90
2021/07/05 12:38:30;;;;;;;1.40;0.63;;;21.00;99.90;;;;;;6243397;23;20109;-86
2021/07/05 12:41:30;;;;;;;1.08;0.60;;;20.90;99.90;;;;;;6243620;22;20043;-89
2021/07/05 12:44:18;;;;;;;3.25;0.82;;;20.90;99.90;;;;;;6241278;23;20036;-90
2021/07/05 12:47:08;;;;;;;2.15;0.60;;;21.40;99.90;;;;;;6242231;23;20089;-87
2021/07/05 12:49:58;;;;;;;2.92;0.90;;;21.90;99.90;;;;;;6241105;23;20040;-86
2021/07/05 12:53:04;;;;;;;0.70;0.70;;;21.60;99.90;;;;;;6240415;23;20020;-88
2021/07/05 12:56:00;;;;;;;1.65;0.60;;;22.10;99.90;;;;;;6241729;23;20043;-87
2021/07/05 12:58:49;;;;;;;1.58;0.57;;;22.30;99.90;;;;;;6243158;22;20028;-88
2021/07/05 13:01:40;;;;;;;0.68;0.50;;;22.30;99.90;;;;;;6241848;23;20028;-86
2021/07/05 13:04:28;;;;;;;1.08;0.60;;;21.80;99.90;;;;;;6241087;23;20378;-89
2021/07/05 13:07:22;;;;;;;1.27;0.50;;;21.30;99.90;;;;;;6243283;23;20615;-88
2021/07/05 13:10:11;;;;;;;2.33;0.88;;;21.20;99.90;;;;;;6240821;23;20025;-88
2021/07/05 13:13:03;;;;;;;1.02;0.52;;;21.20;99.90;;;;;;6241506;23;20384;-90
2021/07/05 13:15:52;;;;;;;0.80;0.70;;;21.10;99.90;;;;;;6242632;23;20028;-91
2021/07/05 13:18:49;;;;;;;0.60;0.60;;;21.00;99.90;;;;;;6244856;23;20031;-90
2021/07/05 13:21:40;;;;;;;1.77;0.75;;;20.90;99.90;;;;;;6249475;23;20038;-94
2021/07/05 13:24:33;;;;;;;;;;;20.60;99.90;;;;;;6247521;22;20028;-91
2021/07/05 13:27:31;;;;;;;1.92;0.80;;;20.30;99.90;;;;;;6244296;23;20294;-91
2021/07/05 13:30:25;;;;;;;2.38;0.73;;;19.90;99.90;;;;;;6244212;23;20328;-87
2021/07/05 13:33:12;;;;;;;1.38;0.90;;;19.60;99.90;;;;;;6242612;23;20109;-85
2021/07/05 13:36:03;;;;;;;4.20;1.05;;;19.40;99.90;;;;;;6243531;23;20023;-88
2021/07/05 13:38:54;;;;;;;1.30;0.80;;;19.50;99.90;;;;;;6242798;23;20331;-93
2021/07/05 13:41:44;;;;;;;0.70;0.60;;;19.60;99.90;;;;;;6243684;23;20028;-89
2021/07/05 13:44:36;;;;;;;2.17;1.63;;;19.30;99.90;;;;;;6242590;23;20090;-90
2021/07/05 13:47:27;;;;;;;2.97;2.30;;;18.90;99.90;;;;;;6242147;23;20031;-88
2021/07/05 13:50:21;;;;;;;0.93;0.80;;;18.50;99.90;;;;;;6241017;23;20117;-87
2021/07/05 13:53:30;;;;;;;2.80;1.63;;;18.10;99.90;;;;;;6243179;22;20390;-87
2021/07/05 13:56:26;;;;;;;2.55;1.55;;;17.80;99.90;;;;;;6240026;23;20023;-86
2021/07/05 13:59:13;;;;;;;1.98;1.13;;;17.80;99.90;;;;;;6242416;23;20163;-87
2021/07/05 14:02:01;;;;;;;2.47;0.98;;;18.10;99.90;;;;;;6241451;23;20028;-88
2021/07/05 14:04:48;;;;;;;0.90;0.90;;;18.60;99.90;;;;;;6243628;23;20155;-88
2021/07/05 14:07:39;;;;;;;1.63;1.02;;;19.50;99.90;;;;;;6242392;23;20471;-87
2021/07/05 14:10:27;;;;;;;1.35;0.90;;;20.30;99.90;;;;;;6240128;23;20024;-86
2021/07/05 14:13:16;;;;;;;1.40;1.05;;;20.70;99.90;;;;;;6243474;22;20028;-86
2021/07/05 14:16:07;;;;;;;1.88;0.80;;;21.10;99.90;;;;;;6241187;23;20031;-87
2021/07/05 14:18:55;;;;;;;1.33;1.00;;;20.90;99.90;;;;;;6240454;23;20024;-88
2021/07/05 14:21:45;;;;;;;2.65;0.80;;;20.60;99.90;;;;;;6241581;23;20028;-87
2021/07/05 14:24:32;;;;;;;3.28;0.80;;;20.40;99.90;;;;;;6241603;23;20078;-87
2021/07/05 14:27:19;;;;;;;0.90;0.88;;;20.40;99.90;;;;;;6240454;23;20142;-87
2021/07/05 14:30:09;;;;;;;2.58;0.70;;;20.40;99.90;;;;;;6220589;23;20031;-86
2021/07/05 14:32:56;;;;;;;2.83;1.08;;;20.40;99.90;;;;;;6241686;23;20103;-87
2021/07/05 14:35:44;;;;;;;0.45;0.45;;;20.30;99.90;;;;;;6243847;23;20319;-87
2021/07/05 14:38:33;;;;;;;2.15;0.40;;;20.80;99.90;;;;;;6241306;23;20021;-87
2021/07/05 14:41:21;;;;;;;1.00;0.65;;;22.50;99.90;;;;;;6241426;23;20147;-88
2021/07/05 14:44:08;;;;;;;0.80;0.70;;;23.30;99.90;;;;;;6244172;23;20392;-87
2021/07/05 14:46:57;;;;;;;1.95;0.70;;;22.80;99.90;;;;;;6242763;23;20028;-86
2021/07/05 14:49:47;;;;;;;1.10;0.63;;;21.90;99.90;;;;;;6242587;23;20020;-89
2021/07/05 14:52:35;;;;;;;1.20;0.90;;;21.90;99.90;;;;;;6244243;23;20153;-87
2021/07/05 14:55:23;;;;;;;3.35;0.80;;;22.10;99.90;;;;;;6243028;23;20129;-88
2021/07/05 14:58:11;;;;;;;2.67;0.70;;;21.70;99.90;;;;;;6243792;23;20133;-90
2021/07/05 15:01:00;;;;;;;1.73;0.80;;;21.50;99.90;;;;;;6243252;23;20075;-89
2021/07/05 15:03:48;;;;;;;0.90;0.80;;;21.30;99.90;;;;;;6241038;23;20039;-89
2021/07/05 15:06:36;;;;;;;0.50;0.50;;;21.20;99.90;;;;;;6241388;23;20082;-88
2021/07/05 15:09:23;;;;;;;1.38;0.80;;;21.10;99.90;;;;;;6242541;23;20420;-87
2021/07/05 15:12:11;;;;;;;1.15;0.70;;;21.00;99.90;;;;;;6243939;23;20016;-90
2021/07/05 15:15:09;;;;;;;3.72;1.02;;;21.00;99.90;;;;;;6244520;22;20024;-89
2021/07/05 15:17:59;;;;;;;1.10;0.73;;;21.00;99.90;;;;;;6243072;23;20024;-88
2021/07/05 15:20:46;;;;;;;0.88;0.80;;;21.10;99.90;;;;;;6243167;23;20082;-89
2021/07/05 15:23:34;;;;;;;1.92;0.70;;;21.20;99.90;;;;;;6242188;23;20027;-87
2021/07/05 15:26:22;;;;;;;1.42;0.90;;;21.20;99.90;;;;;;6242761;23;20111;-89
2021/07/05 15:29:09;;;;;;;2.38;0.90;;;21.20;99.90;;;;;;6241616;23;20028;-89
2021/07/05 15:31:56;;;;;;;1.05;0.73;;;21.30;99.90;;;;;;6244688;22;20020;-89
2021/07/05 15:34:48;;;;;;;1.80;0.82;;;21.90;99.90;;;;;;6242359;23;20024;-88
2021/07/05 15:37:39;;;;;;;2.33;0.68;;;22.60;99.90;;;;;;6240747;23;20021;-90
2021/07/05 15:40:26;;;;;;;1.52;0.60;;;22.10;99.90;;;;;;6243411;23;20062;-88
2021/07/05 15:43:13;;;;;;;1.85;0.55;;;23.20;99.90;;;;;;6241782;23;20238;-91
2021/07/05 15:46:03;;;;;;;2.13;0.68;;;24.60;95.10;;;;;;6220936;23;20070;-89
2021/07/05 15:48:50;;;;;;;2.35;1.10;;;24.90;90.30;;;;;;6241161;23;20024;-89
2021/07/05 15:51:38;;;;;;;1.35;0.85;;;23.70;92.50;;;;;;6249346;23;20069;-89
2021/07/05 15:54:25;;;;;;;1.08;0.80;;;23.00;94.80;;;;;;6249910;22;20118;-89
2021/07/05 15:57:14;;;;;;;1.17;0.60;;;23.20;95.00;;;;;;6222398;23;20270;-89
2021/07/05 16:00:20;;;;;;;0.70;0.65;;;23.90;92.10;;;;;;6242453;23;20035;-89
2021/07/05 16:03:10;;;;;;;3.55;1.00;;;24.10;92.10;;;;;;6242003;23;20032;-90
2021/07/05 16:05:58;;;;;;;5.90;0.80;;;24.00;92.90;;;;;;6242342;23;20435;-89
2021/07/05 16:08:45;;;;;;;1.50;0.82;;;23.90;93.40;;;;;;6241682;23;20024;-89
2021/07/05 16:11:38;;;;;;;2.50;0.77;;;23.60;92.30;;;;;;6241418;23;20059;-89